createdAt,value
2023-01-30T00:02:08.306Z,100476.19
2023-01-30T00:04:35.864Z,100469.41
2023-01-30T00:07:03.495Z,100482.72
2023-01-30T00:09:31.097Z,100490.53
2023-01-30T00:11:58.736Z,100491.75
2023-01-30T00:14:27.725Z,100484.81
2023-01-30T00:16:55.337Z,100484.59
2023-01-30T00:19:22.930Z,100489.47
2023-01-30T00:21:50.591Z,100467.84
2023-01-30T00:24:21.555Z,100481.81
2023-01-30T00:26:49.289Z,100454.16
2023-01-30T00:29:16.873Z,100470.34
2023-01-30T00:31:46.108Z,100468.59
2023-01-30T00:34:13.817Z,100473.88
2023-01-30T00:36:41.461Z,100478.63
2023-01-30T00:39:09.070Z,100489.53
2023-01-30T00:41:50.601Z,100489.44
2023-01-30T00:44:35.140Z,100487.97
2023-01-30T00:47:08.664Z,100476.13
2023-01-30T00:49:36.952Z,100468.59
2023-01-30T00:52:05.139Z,100452.19
2023-01-30T00:54:32.678Z,100447.72
2023-01-30T00:57:00.344Z,100431.44
2023-01-30T00:59:28.458Z,100438.97
2023-01-30T01:01:56.257Z,100414.03
2023-01-30T01:04:25.350Z,100404.91
2023-01-30T01:06:52.985Z,100401.75
2023-01-30T01:09:20.588Z,100400.81
2023-01-30T01:11:48.203Z,100396.91
2023-01-30T01:14:15.826Z,100387.13
2023-01-30T01:16:43.554Z,100391.75
2023-01-30T01:19:11.158Z,100368.97
2023-01-30T01:21:40.043Z,100386.56
2023-01-30T01:24:08.433Z,100380.78
2023-01-30T01:26:36.042Z,100383.09
2023-01-30T01:29:03.590Z,100376.50
2023-01-30T01:31:31.340Z,100387.28
2023-01-30T01:33:58.999Z,100364.97
2023-01-30T01:36:52.048Z,100373.91
2023-01-30T01:39:15.715Z,100357.53
2023-01-30T01:41:42.397Z,100377.38
2023-01-30T01:44:11.858Z,100379.38
2023-01-30T01:46:43.871Z,100384.22
2023-01-30T01:49:16.466Z,100367.28
2023-01-30T01:51:51.603Z,100355.66
2023-01-30T01:54:28.519Z,100358.00
2023-01-30T01:56:56.164Z,100349.44
2023-01-30T01:59:29.330Z,100331.09
2023-01-30T02:02:01.350Z,100317.31
2023-01-30T02:04:49.424Z,100308.19
2023-01-30T02:07:19.543Z,100310.72
2023-01-30T02:09:48.994Z,100295.72
2023-01-30T02:12:16.619Z,100302.16
2023-01-30T02:14:45.120Z,100305.16
2023-01-30T02:17:12.792Z,100298.38
2023-01-30T02:19:51.357Z,100294.69
2023-01-30T02:22:40.870Z,100308.44
2023-01-30T02:25:50.628Z,100311.31
2023-01-30T02:29:00.576Z,100310.50
2023-01-30T02:31:36.897Z,100309.59
2023-01-30T02:34:23.092Z,100306.75
2023-01-30T02:37:02.237Z,100295.81
2023-01-30T02:39:39.905Z,100284.50
2023-01-30T02:42:20.474Z,100270.84
2023-01-30T02:44:53.872Z,100270.31
2023-01-30T02:47:54.425Z,100273.97
2023-01-30T02:50:26.857Z,100298.91
2023-01-30T02:52:55.176Z,100296.22
2023-01-30T02:55:25.152Z,100317.78
2023-01-30T02:57:53.048Z,100309.88
2023-01-30T03:00:24.553Z,100294.69
2023-01-30T03:03:22.564Z,100294.38
2023-01-30T03:06:19.159Z,100301.91
2023-01-30T03:09:00.911Z,100303.41
2023-01-30T03:11:39.893Z,100298.75
2023-01-30T03:14:15.111Z,100284.03
2023-01-30T03:16:42.993Z,100286.47
2023-01-30T03:19:13.888Z,100295.41
2023-01-30T03:21:42.311Z,100307.72
2023-01-30T03:24:09.975Z,100307.44
2023-01-30T03:26:41.557Z,100300.59
2023-01-30T03:29:09.198Z,100293.53
2023-01-30T03:31:36.963Z,100274.22
2023-01-30T03:34:04.870Z,100292.41
2023-01-30T03:36:33.909Z,100288.28
2023-01-30T03:39:01.573Z,100285.31
2023-01-30T03:41:29.273Z,100283.50
2023-01-30T03:43:56.868Z,100294.03
2023-01-30T03:46:24.793Z,100291.44
2023-01-30T03:48:52.407Z,100294.22
2023-01-30T03:51:20.443Z,100290.59
2023-01-30T03:53:49.962Z,100277.50
2023-01-30T03:56:17.824Z,100284.72
2023-01-30T03:58:45.538Z,100274.16
2023-01-30T04:01:13.173Z,100265.53
2023-01-30T04:03:40.762Z,100267.81
2023-01-30T04:06:08.629Z,100266.38
2023-01-30T04:08:36.223Z,100275.47
2023-01-30T04:11:05.519Z,100256.41
2023-01-30T04:13:33.101Z,100250.16
2023-01-30T04:16:17.714Z,100252.50
2023-01-30T04:18:45.959Z,100260.38
2023-01-30T04:21:13.793Z,100236.06
2023-01-30T04:23:41.905Z,100247.34
2023-01-30T04:26:11.466Z,100243.78
2023-01-30T04:28:39.429Z,100238.00
2023-01-30T04:31:07.722Z,100232.91
2023-01-30T04:33:36.109Z,100241.50
2023-01-30T04:36:05.676Z,100242.63
2023-01-30T04:38:34.271Z,100251.94
2023-01-30T04:41:02.205Z,100246.63
2023-01-30T04:43:31.943Z,100233.13
2023-01-30T04:45:59.572Z,100239.59
2023-01-30T04:48:27.750Z,100213.00
2023-01-30T04:50:58.126Z,100195.34
2023-01-30T04:53:26.540Z,100212.28
2023-01-30T04:55:54.139Z,100196.63
2023-01-30T04:58:21.788Z,100192.78
2023-01-30T05:00:50.821Z,100194.53
2023-01-30T05:03:18.747Z,100201.63
2023-01-30T05:05:48.043Z,100201.13
2023-01-30T05:08:16.115Z,100205.06
2023-01-30T05:10:43.774Z,100193.81
2023-01-30T05:13:11.425Z,100204.22
2023-01-30T05:15:40.341Z,100200.16
2023-01-30T05:18:09.285Z,100189.13
2023-01-30T05:20:36.825Z,100200.91
2023-01-30T05:23:04.396Z,100180.88
2023-01-30T05:25:32.170Z,100178.69
2023-01-30T05:28:00.003Z,100186.31
2023-01-30T05:30:27.612Z,100179.84
2023-01-30T05:32:55.288Z,100174.31
2023-01-30T05:35:24.195Z,100162.13
2023-01-30T05:37:51.886Z,100172.97
2023-01-30T05:40:19.693Z,100160.69
2023-01-30T05:42:48.867Z,100182.50
2023-01-30T05:45:17.472Z,100178.44
2023-01-30T05:47:45.182Z,100180.72
2023-01-30T05:50:12.842Z,100196.38
2023-01-30T05:52:41.756Z,100202.00
2023-01-30T05:55:10.449Z,100199.19
2023-01-30T05:57:37.999Z,100193.44
2023-01-30T06:00:07.056Z,100195.97
2023-01-30T06:02:34.681Z,100193.44
2023-01-30T06:05:02.353Z,100186.16
2023-01-30T06:07:30.017Z,100194.09
2023-01-30T06:09:58.948Z,100187.22
2023-01-30T06:12:26.506Z,100185.22
2023-01-30T06:14:54.090Z,100183.03
2023-01-30T06:17:21.659Z,100174.56
2023-01-30T06:19:49.245Z,100176.53
2023-01-30T06:22:16.804Z,100177.38
2023-01-30T06:24:44.377Z,100169.34
2023-01-30T06:27:14.340Z,100173.09
2023-01-30T06:29:41.938Z,100175.19
2023-01-30T06:32:10.580Z,100182.41
2023-01-30T06:34:38.125Z,100181.25
2023-01-30T06:37:05.690Z,100196.25
2023-01-30T06:39:33.235Z,100182.69
2023-01-30T06:42:00.748Z,100188.34
2023-01-30T06:44:29.607Z,100189.19
2023-01-30T06:46:57.155Z,100192.31
2023-01-30T06:49:24.712Z,100185.13
2023-01-30T06:51:52.250Z,100177.28
2023-01-30T06:54:20.062Z,100153.28
2023-01-30T06:56:47.651Z,100161.28
2023-01-30T06:59:15.218Z,100159.41
2023-01-30T07:01:44.313Z,100159.41
2023-01-30T07:04:13.931Z,100157.22
2023-01-30T07:06:41.520Z,100145.00
2023-01-30T07:09:09.094Z,100150.63
2023-01-30T07:11:36.680Z,100151.34
2023-01-30T07:14:06.232Z,100154.69
2023-01-30T07:16:33.951Z,100146.44
2023-01-30T07:19:02.955Z,100156.22
2023-01-30T07:21:30.579Z,100142.53
2023-01-30T07:23:59.383Z,100144.44
2023-01-30T07:26:27.007Z,100137.16
2023-01-30T07:28:54.607Z,100135.78
2023-01-30T07:31:22.217Z,100130.03
2023-01-30T07:33:49.814Z,100140.91
2023-01-30T07:36:18.820Z,100136.31
2023-01-30T07:38:49.085Z,100136.75
2023-01-30T07:41:16.785Z,100140.72
2023-01-30T07:43:44.371Z,100154.47
2023-01-30T07:46:12.111Z,100138.31
2023-01-30T07:48:39.697Z,100122.63
2023-01-30T07:51:07.789Z,100123.16
2023-01-30T07:53:36.714Z,100122.97
2023-01-30T07:56:08.190Z,100098.72
2023-01-30T07:58:35.969Z,100096.84
2023-01-30T08:01:03.711Z,100101.03
2023-01-30T08:03:31.299Z,100103.31
2023-01-30T08:05:58.875Z,100113.03
2023-01-30T08:08:26.429Z,100119.81
2023-01-30T08:10:55.312Z,100112.00
2023-01-30T08:13:22.997Z,100113.75
2023-01-30T08:15:50.850Z,100111.50
2023-01-30T08:18:18.510Z,100099.13
2023-01-30T08:20:46.133Z,100096.53
2023-01-30T08:23:13.670Z,100103.66
2023-01-30T08:25:41.186Z,100109.28
2023-01-30T08:28:10.052Z,100108.22
2023-01-30T08:30:37.652Z,100111.56
2023-01-30T08:33:05.422Z,100101.81
2023-01-30T08:35:32.949Z,100079.06
2023-01-30T08:38:00.639Z,100093.56
2023-01-30T08:40:28.293Z,100095.22
2023-01-30T08:42:56.439Z,100102.03
2023-01-30T08:45:25.545Z,100105.13
2023-01-30T08:47:53.171Z,100099.03
2023-01-30T08:50:21.161Z,100093.47
2023-01-30T08:52:48.822Z,100110.72
2023-01-30T08:55:16.614Z,100110.72
2023-01-30T08:57:44.243Z,100111.22
2023-01-30T09:00:13.597Z,100120.84
2023-01-30T09:02:42.692Z,100105.66
2023-01-30T09:05:11.775Z,100127.09
2023-01-30T09:07:39.399Z,100094.66
2023-01-30T09:10:07.712Z,100079.81
2023-01-30T09:12:35.274Z,100085.13
2023-01-30T09:15:02.945Z,100090.25
2023-01-30T09:17:30.540Z,100088.69
2023-01-30T09:19:59.506Z,100082.41
2023-01-30T09:22:27.430Z,100090.75
2023-01-30T09:24:55.007Z,100078.78
2023-01-30T09:27:22.583Z,100076.06
2023-01-30T09:29:50.128Z,100077.97
2023-01-30T09:32:17.777Z,100075.25
2023-01-30T09:34:45.330Z,100069.16
2023-01-30T09:37:14.367Z,100064.63
2023-01-30T09:39:41.933Z,100066.81
2023-01-30T09:42:39.631Z,100063.25
2023-01-30T09:45:41.411Z,100075.66
2023-01-30T09:48:17.813Z,100071.19
2023-01-30T09:51:03.941Z,100063.69
2023-01-30T09:53:41.453Z,100088.78
2023-01-30T09:56:09.200Z,100076.56
2023-01-30T09:58:45.537Z,100091.81
2023-01-30T10:01:21.998Z,100106.81
2023-01-30T10:04:02.538Z,100108.47
2023-01-30T10:06:32.036Z,100109.56
2023-01-30T10:09:07.041Z,100102.78
2023-01-30T10:11:50.003Z,100105.75
2023-01-30T10:14:36.044Z,100103.72
2023-01-30T10:17:19.348Z,100094.34
2023-01-30T10:20:04.039Z,100093.38
2023-01-30T10:22:42.674Z,100079.06
2023-01-30T10:25:28.758Z,100081.53
2023-01-30T10:28:02.567Z,100077.47
2023-01-30T10:30:30.560Z,100087.09
2023-01-30T10:33:03.159Z,100080.47
2023-01-30T10:35:35.175Z,100076.50
2023-01-30T10:38:13.561Z,100069.41
2023-01-30T10:40:47.502Z,100094.59
2023-01-30T10:43:21.926Z,100087.75
2023-01-30T10:45:58.566Z,100100.97
2023-01-30T10:48:59.273Z,100108.44
2023-01-30T10:51:39.280Z,100120.00
2023-01-30T10:54:17.445Z,100108.31
2023-01-30T10:56:55.547Z,100115.28
2023-01-30T10:59:25.440Z,100117.91
2023-01-30T11:02:04.920Z,100090.25
2023-01-30T11:04:39.708Z,100101.34
2023-01-30T11:07:07.887Z,100091.16
2023-01-30T11:09:43.127Z,100089.91
2023-01-30T11:12:12.461Z,100104.53
2023-01-30T11:14:54.657Z,100078.53
2023-01-30T11:17:29.694Z,100073.72
2023-01-30T11:19:58.628Z,100077.03
2023-01-30T11:22:27.558Z,100077.75
2023-01-30T11:25:03.217Z,100078.84
2023-01-30T11:27:35.007Z,100097.72
2023-01-30T11:30:13.039Z,100113.94
2023-01-30T11:32:40.760Z,100110.81
2023-01-30T11:35:58.777Z,100092.88
2023-01-30T11:38:28.912Z,100076.72
2023-01-30T11:41:05.519Z,100093.75
2023-01-30T11:43:37.096Z,100091.00
2023-01-30T11:46:06.489Z,100105.47
2023-01-30T11:49:31.992Z,100086.28
2023-01-30T11:51:25.620Z,100090.88
2023-01-30T11:53:58.124Z,100087.97
2023-01-30T11:56:33.551Z,100089.13
2023-01-30T11:59:05.136Z,100082.69
2023-01-30T12:01:35.244Z,100093.13
2023-01-30T12:04:07.769Z,100085.31
2023-01-30T12:06:38.017Z,100109.13
2023-01-30T12:09:06.517Z,100112.91
2023-01-30T12:11:44.977Z,100093.81
2023-01-30T12:14:38.713Z,100101.41
2023-01-30T12:17:15.775Z,100085.22
2023-01-30T12:19:53.130Z,100092.03
2023-01-30T12:22:27.741Z,100097.16
2023-01-30T12:25:00.106Z,100099.19
2023-01-30T12:27:38.803Z,100085.13
2023-01-30T12:30:22.157Z,100089.88
2023-01-30T12:32:50.096Z,100090.69
2023-01-30T12:35:19.920Z,100091.97
2023-01-30T12:38:01.905Z,100082.47
2023-01-30T12:40:37.673Z,100088.09
2023-01-30T12:43:23.888Z,100073.31
2023-01-30T12:46:04.372Z,100078.69
2023-01-30T12:49:10.372Z,100074.13
2023-01-30T12:51:59.411Z,100077.69
2023-01-30T12:54:40.582Z,100074.94
2023-01-30T12:57:25.561Z,100084.91
2023-01-30T13:00:04.654Z,100068.81
2023-01-30T13:02:55.900Z,100092.03
2023-01-30T13:05:36.305Z,100106.78
2023-01-30T13:08:24.824Z,100109.88
2023-01-30T13:11:00.298Z,100114.09
2023-01-30T13:13:36.069Z,100117.25
2023-01-30T13:16:11.945Z,100116.94
2023-01-30T13:18:48.843Z,100112.28
2023-01-30T13:21:20.682Z,100118.94
2023-01-30T13:24:02.497Z,100115.28
2023-01-30T13:26:34.869Z,100115.41
2023-01-30T13:29:05.912Z,100124.44
2023-01-30T13:31:39.024Z,100114.84
2023-01-30T13:34:13.583Z,100099.22
2023-01-30T13:36:45.653Z,100099.66
2023-01-30T13:41:53.972Z,100099.72
2023-01-30T13:44:25.760Z,100103.38
2023-01-30T13:46:55.396Z,100098.94
2023-01-30T13:49:31.693Z,100112.59
2023-01-30T13:52:04.694Z,100106.31
2023-01-30T13:54:48.062Z,100108.72
2023-01-30T13:57:26.611Z,100111.31
2023-01-30T14:00:19.426Z,100114.72
2023-01-30T14:03:24.892Z,100130.53
2023-01-30T14:06:31.805Z,100127.50
2023-01-30T14:09:02.391Z,100136.66
2023-01-30T14:11:34.574Z,100138.59
2023-01-30T14:14:05.347Z,100136.38
2023-01-30T14:16:47.930Z,100154.28
2023-01-30T14:19:32.943Z,100151.13
2023-01-30T14:22:06.349Z,100155.59
2023-01-30T14:24:33.984Z,100165.22
2023-01-30T14:27:04.072Z,100169.41
2023-01-30T14:29:53.749Z,100170.16
2023-01-30T14:32:53.242Z,100168.63
2023-01-30T14:35:26.560Z,100156.59
2023-01-30T14:38:14.001Z,100172.19
2023-01-30T14:41:03.920Z,100173.03
2023-01-30T14:43:52.334Z,100178.81
2023-01-30T14:46:54.248Z,100186.66
2023-01-30T14:49:30.534Z,100174.84
2023-01-30T14:51:58.338Z,100184.44
2023-01-30T14:54:41.769Z,100174.50
2023-01-30T14:57:27.428Z,100185.34
2023-01-30T15:00:18.441Z,100197.63
2023-01-30T15:02:52.492Z,100202.63
2023-01-30T15:05:26.193Z,100191.09
2023-01-30T15:07:58.950Z,100191.44
2023-01-30T15:10:49.597Z,100201.72
2023-01-30T15:13:46.809Z,100200.50
2023-01-30T15:16:32.647Z,100206.00
2023-01-30T15:19:15.603Z,100220.66
2023-01-30T15:21:55.340Z,100224.50
2023-01-30T15:24:46.707Z,100227.00
2023-01-30T15:27:22.417Z,100222.34
2023-01-30T15:30:17.223Z,100238.09
2023-01-30T15:32:45.983Z,100239.50
2023-01-30T15:35:25.417Z,100248.94
2023-01-30T15:37:55.128Z,100235.00
2023-01-30T15:40:25.712Z,100241.28
2023-01-30T15:43:13.066Z,100237.84
2023-01-30T15:45:52.387Z,100242.38
2023-01-30T15:48:40.778Z,100249.72
2023-01-30T15:51:13.027Z,100255.34
2023-01-30T15:53:43.832Z,100267.97
2023-01-30T15:56:17.530Z,100265.22
2023-01-30T15:58:46.941Z,100262.72
2023-01-30T16:01:20.546Z,100269.25
2023-01-30T16:03:50.932Z,100272.34
2023-01-30T16:06:30.306Z,100282.72
2023-01-30T16:09:00.432Z,100286.19
2023-01-30T16:11:36.840Z,100294.44
2023-01-30T16:14:07.289Z,100303.00
2023-01-30T16:16:36.812Z,100319.59
2023-01-30T16:19:09.003Z,100318.13
2023-01-30T16:21:40.051Z,100318.38
2023-01-30T16:24:15.210Z,100331.47
2023-01-30T16:26:46.282Z,100336.38
2023-01-30T16:29:18.779Z,100339.19
2023-01-30T16:31:48.931Z,100335.19
2023-01-30T16:34:29.198Z,100343.56
2023-01-30T16:37:07.518Z,100358.81
2023-01-30T16:39:36.779Z,100349.22
2023-01-30T16:42:21.253Z,100337.19
2023-01-30T16:44:50.180Z,100344.78
2023-01-30T16:47:24.674Z,100347.00
2023-01-30T16:49:53.754Z,100348.44
2023-01-30T16:52:24.388Z,100358.09
2023-01-30T16:54:54.335Z,100352.19
2023-01-30T16:57:36.388Z,100360.13
2023-01-30T17:00:10.066Z,100367.88
2023-01-30T17:02:40.975Z,100372.19
2023-01-30T17:05:20.419Z,100381.59
2023-01-30T17:07:49.421Z,100382.59
2023-01-30T17:10:53.674Z,100389.06
2023-01-30T17:13:36.743Z,100390.56
2023-01-30T17:16:33.384Z,100391.66
2023-01-30T17:19:01.235Z,100396.22
2023-01-30T17:21:32.103Z,100395.09
2023-01-30T17:24:02.646Z,100398.41
2023-01-30T17:26:31.519Z,100386.66
2023-01-30T17:28:59.747Z,100385.69
2023-01-30T17:31:27.484Z,100395.47
2023-01-30T17:33:56.440Z,100394.84
2023-01-30T17:36:27.182Z,100397.78
2023-01-30T17:38:54.909Z,100402.81
2023-01-30T17:41:25.082Z,100413.28
2023-01-30T17:43:52.825Z,100413.22
2023-01-30T17:46:24.768Z,100421.41
2023-01-30T17:48:52.690Z,100428.66
2023-01-30T17:51:21.603Z,100428.44
2023-01-30T17:53:49.197Z,100434.53
2023-01-30T17:56:19.708Z,100434.03
2023-01-30T17:58:47.268Z,100437.91
2023-01-30T18:01:16.160Z,100438.19
2023-01-30T18:03:44.972Z,100434.94
2023-01-30T18:06:14.423Z,100425.22
2023-01-30T18:08:43.874Z,100434.94
2023-01-30T18:11:14.752Z,100435.59
2023-01-30T18:13:43.562Z,100437.63
2023-01-30T18:16:16.583Z,100443.66
2023-01-30T18:18:44.254Z,100443.59
2023-01-30T18:21:12.128Z,100455.25
2023-01-30T18:23:39.760Z,100449.06
2023-01-30T18:26:11.596Z,100448.59
2023-01-30T18:28:39.682Z,100467.13
2023-01-30T18:31:07.545Z,100454.91
2023-01-30T18:33:35.185Z,100456.66
2023-01-30T18:36:05.774Z,100467.34
2023-01-30T18:38:33.411Z,100460.09
2023-01-30T18:41:08.715Z,100465.72
2023-01-30T18:43:36.662Z,100472.81
2023-01-30T18:46:06.289Z,100465.94
2023-01-30T18:48:34.689Z,100475.25
2023-01-30T18:51:07.537Z,100469.72
2023-01-30T18:53:35.643Z,100473.19
2023-01-30T18:56:03.279Z,100483.31
2023-01-30T18:58:32.680Z,100490.47
2023-01-30T19:01:01.106Z,100489.44
2023-01-30T19:03:28.765Z,100492.06
2023-01-30T19:05:56.306Z,100487.16
2023-01-30T19:08:25.931Z,100493.28
2023-01-30T19:10:53.750Z,100496.94
2023-01-30T19:13:36.687Z,100506.81
2023-01-30T19:16:06.851Z,100501.59
2023-01-30T19:18:34.926Z,100502.09
2023-01-30T19:21:03.290Z,100500.75
2023-01-30T19:23:33.857Z,100497.19
2023-01-30T19:26:01.789Z,100511.63
2023-01-30T19:28:31.304Z,100507.97
2023-01-30T19:30:59.693Z,100511.53
2023-01-30T19:33:28.883Z,100515.72
2023-01-30T19:35:56.655Z,100513.81
2023-01-30T19:38:24.437Z,100518.94
2023-01-30T19:40:52.103Z,100516.44
2023-01-30T19:43:19.878Z,100534.41
2023-01-30T19:45:58.108Z,100540.81
2023-01-30T19:48:26.490Z,100537.31
2023-01-30T19:50:55.558Z,100556.16
2023-01-30T19:53:23.378Z,100549.72
2023-01-30T19:55:51.411Z,100569.81
2023-01-30T19:58:19.580Z,100554.63
2023-01-30T20:00:49.242Z,100562.59
2023-01-30T20:03:17.099Z,100572.53
2023-01-30T20:05:45.168Z,100579.34
2023-01-30T20:08:25.403Z,100591.50
2023-01-30T20:11:02.375Z,100596.44
2023-01-30T20:13:30.284Z,100586.47
2023-01-30T20:16:06.157Z,100601.34
2023-01-30T20:18:37.336Z,100610.34
2023-01-30T20:21:07.837Z,100603.00
2023-01-30T20:23:37.468Z,100610.84
2023-01-30T20:26:06.170Z,100604.47
2023-01-30T20:28:34.584Z,100608.31
2023-01-30T20:31:09.231Z,100608.50
2023-01-30T20:33:37.674Z,100614.38
2023-01-30T20:36:08.084Z,100615.63
2023-01-30T20:38:39.530Z,100629.25
2023-01-30T20:41:09.417Z,100629.56
2023-01-30T20:43:38.757Z,100627.88
2023-01-30T20:46:09.040Z,100635.03
2023-01-30T20:48:38.526Z,100639.22
2023-01-30T20:51:08.443Z,100640.69
2023-01-30T20:53:38.867Z,100643.44
2023-01-30T20:56:09.316Z,100641.41
2023-01-30T20:58:38.426Z,100641.09
2023-01-30T21:01:11.400Z,100647.22
2023-01-30T21:03:40.098Z,100649.31
2023-01-30T21:06:08.006Z,100656.34
2023-01-30T21:08:39.469Z,100658.44
2023-01-30T21:11:08.884Z,100657.75
2023-01-30T21:13:38.292Z,100666.72
2023-01-30T21:16:08.407Z,100666.41
2023-01-30T21:18:39.359Z,100680.59
2023-01-30T21:21:07.664Z,100686.84
2023-01-30T21:23:36.993Z,100697.31
2023-01-30T21:26:06.614Z,100703.75
2023-01-30T21:28:34.283Z,100698.69
2023-01-30T21:31:06.595Z,100700.78
2023-01-30T21:33:34.419Z,100695.22
2023-01-30T21:36:02.671Z,100704.06
2023-01-30T21:38:47.967Z,100706.03
2023-01-30T21:41:35.874Z,100706.69
2023-01-30T21:44:04.159Z,100712.63
2023-01-30T21:46:34.502Z,100713.38
2023-01-30T21:49:02.227Z,100727.22
2023-01-30T21:51:30.416Z,100723.13
2023-01-30T21:53:57.980Z,100737.16
2023-01-30T21:56:27.241Z,100739.47
2023-01-30T21:58:55.763Z,100732.97
2023-01-30T22:01:23.603Z,100735.19
2023-01-30T22:03:51.355Z,100738.22
2023-01-30T22:06:18.980Z,100733.91
2023-01-30T22:08:46.741Z,100738.97
2023-01-30T22:11:16.198Z,100740.19
2023-01-30T22:13:45.245Z,100732.53
2023-01-30T22:16:14.336Z,100740.81
2023-01-30T22:18:43.989Z,100736.09
2023-01-30T22:21:13.286Z,100724.88
2023-01-30T22:23:42.769Z,100715.56
2023-01-30T22:26:11.468Z,100722.38
2023-01-30T22:28:39.746Z,100721.63
2023-01-30T22:31:10.810Z,100719.63
2023-01-30T22:33:38.768Z,100724.59
2023-01-30T22:36:08.602Z,100717.44
2023-01-30T22:38:36.306Z,100735.78
2023-01-30T22:41:07.012Z,100733.81
2023-01-30T22:43:36.143Z,100733.59
2023-01-30T22:46:06.041Z,100727.63
2023-01-30T22:48:35.928Z,100732.97
2023-01-30T22:51:05.686Z,100742.09
2023-01-30T22:53:34.297Z,100743.22
2023-01-30T22:56:03.580Z,100741.34
2023-01-30T22:58:31.242Z,100731.59
2023-01-30T23:01:05.893Z,100734.00
2023-01-30T23:03:35.856Z,100725.63
2023-01-30T23:06:06.807Z,100724.38
2023-01-30T23:08:36.139Z,100723.53
2023-01-30T23:11:08.592Z,100729.59
2023-01-30T23:13:36.971Z,100736.53
2023-01-30T23:16:06.339Z,100737.56
2023-01-30T23:18:52.966Z,100738.00
2023-01-30T23:21:20.710Z,100747.63
2023-01-30T23:23:48.615Z,100731.63
2023-01-30T23:26:16.247Z,100737.69
2023-01-30T23:28:43.802Z,100738.31
2023-01-30T23:31:13.317Z,100735.69
2023-01-30T23:33:42.498Z,100730.97
2023-01-30T23:36:36.526Z,100731.81
2023-01-30T23:39:05.355Z,100737.88
2023-01-30T23:41:36.765Z,100721.66
2023-01-30T23:44:05.370Z,100722.06
2023-01-30T23:46:34.356Z,100724.16
2023-01-30T23:49:05.633Z,100729.09
2023-01-30T23:51:35.483Z,100730.66
2023-01-30T23:54:04.594Z,100729.59
2023-01-30T23:56:35.467Z,100729.00
2023-01-30T23:59:03.697Z,100728.66
